sensor_id;sensor_type;location;lat;lon;timestamp;pressure;altitude;pressure_sealevel;temperature;humidity
63691;BME280;49837;57.280;27.070;2023-01-15T00:00:46;99703.86;;;1.99;100.0
63691;BME280;49837;57.280;27.070;2023-01-15T00:01:46;99704.55;;;1.95;100.0
63691;BME280;49837;57.280;27.070;2023-01-15T00:02:47;99701.84;;;1.92;100.0
63691;BME280;49837;57.280;27.070;2023-01-15T00:03:47;99704.95;;;1.96;100.0
63691;BME280;49837;57.280;27.070;2023-01-15T00:04:50;99711.62;;;1.98;100.0
63691;BME280;49837;57.280;27.070;2023-01-15T00:05:48;99708.89;;;2.03;100.0
63691;BME280;49837;57.280;27.070;2023-01-15T00:06:48;99704.61;;;2.06;100.0
63691;BME280;49837;57.280;27.070;2023-01-15T00:07:49;99704.02;;;2.04;100.0
63691;BME280;49837;57.280;27.070;2023-01-15T00:08:50;99701.98;;;2.03;100.0
63691;BME280;49837;57.280;27.070;2023-01-15T00:09:50;99698.38;;;2.0;100.0
63691;BME280;49837;57.280;27.070;2023-01-15T00:10:50;99703.88;;;2.02;100.0
63691;BME280;49837;57.280;27.070;2023-01-15T00:11:50;99699.41;;;2.03;100.0
63691;BME280;49837;57.280;27.070;2023-01-15T00:12:50;99698.86;;;2.05;100.0
63691;BME280;49837;57.280;27.070;2023-01-15T00:13:51;99701.33;;;2.04;100.0
63691;BME280;49837;57.280;27.070;2023-01-15T00:14:51;99693.37;;;1.98;100.0
63691;BME280;49837;57.280;27.070;2023-01-15T00:15:52;99693.27;;;1.94;100.0
63691;BME280;49837;57.280;27.070;2023-01-15T00:16:52;99691.14;;;1.93;100.0
63691;BME280;49837;57.280;27.070;2023-01-15T00:17:52;99686.8;;;1.92;100.0
63691;BME280;49837;57.280;27.070;2023-01-15T00:18:58;99685.23;;;1.91;100.0
63691;BME280;49837;57.280;27.070;2023-01-15T00:19:56;99680.94;;;1.9;100.0
63691;BME280;49837;57.280;27.070;2023-01-15T00:21:04;99679.13;;;1.89;100.0
63691;BME280;49837;57.280;27.070;2023-01-15T00:21:57;99678.32;;;1.9;100.0
63691;BME280;49837;57.280;27.070;2023-01-15T00:22:57;99682.52;;;1.85;100.0
63691;BME280;49837;57.280;27.070;2023-01-15T00:23:58;99681.8;;;1.82;100.0
63691;BME280;49837;57.280;27.070;2023-01-15T00:24:58;99680.56;;;1.85;100.0
63691;BME280;49837;57.280;27.070;2023-01-15T00:25:58;99680.3;;;1.85;100.0
63691;BME280;49837;57.280;27.070;2023-01-15T00:26:59;99680.88;;;1.85;100.0
63691;BME280;49837;57.280;27.070;2023-01-15T00:27:59;99681.36;;;1.85;100.0
63691;BME280;49837;57.280;27.070;2023-01-15T00:28:59;99684.16;;;1.85;100.0
63691;BME280;49837;57.280;27.070;2023-01-15T00:30:00;99680.55;;;1.88;100.0
63691;BME280;49837;57.280;27.070;2023-01-15T00:31:00;99679.48;;;1.85;100.0
63691;BME280;49837;57.280;27.070;2023-01-15T00:32:05;99676.77;;;1.84;100.0
63691;BME280;49837;57.280;27.070;2023-01-15T00:33:03;99681.38;;;1.86;100.0
63691;BME280;49837;57.280;27.070;2023-01-15T00:34:04;99677.18;;;1.83;100.0
63691;BME280;49837;57.280;27.070;2023-01-15T00:35:05;99676.95;;;1.8;100.0
63691;BME280;49837;57.280;27.070;2023-01-15T00:36:05;99676.53;;;1.78;100.0
63691;BME280;49837;57.280;27.070;2023-01-15T00:37:05;99676.12;;;1.78;100.0
63691;BME280;49837;57.280;27.070;2023-01-15T00:38:05;99673.31;;;1.78;100.0
63691;BME280;49837;57.280;27.070;2023-01-15T00:39:06;99672.42;;;1.77;100.0
63691;BME280;49837;57.280;27.070;2023-01-15T00:40:07;99674.06;;;1.78;100.0
63691;BME280;49837;57.280;27.070;2023-01-15T00:41:06;99672.16;;;1.78;100.0
63691;BME280;49837;57.280;27.070;2023-01-15T00:42:08;99665.19;;;1.74;100.0
63691;BME280;49837;57.280;27.070;2023-01-15T00:43:07;99665.36;;;1.73;100.0
63691;BME280;49837;57.280;27.070;2023-01-15T00:44:07;99662.67;;;1.69;100.0
63691;BME280;49837;57.280;27.070;2023-01-15T00:45:09;99662.84;;;1.68;100.0
63691;BME280;49837;57.280;27.070;2023-01-15T00:46:09;99659.11;;;1.67;100.0
63691;BME280;49837;57.280;27.070;2023-01-15T00:47:09;99658.95;;;1.7;100.0
63691;BME280;49837;57.280;27.070;2023-01-15T00:48:09;99658.23;;;1.7;100.0
63691;BME280;49837;57.280;27.070;2023-01-15T00:49:09;99657.72;;;1.7;100.0
63691;BME280;49837;57.280;27.070;2023-01-15T00:50:12;99651.23;;;1.69;100.0
63691;BME280;49837;57.280;27.070;2023-01-15T00:51:10;99653.94;;;1.7;100.0
63691;BME280;49837;57.280;27.070;2023-01-15T00:52:11;99654.52;;;1.7;100.0
63691;BME280;49837;57.280;27.070;2023-01-15T00:53:11;99655.34;;;1.71;100.0
63691;BME280;49837;57.280;27.070;2023-01-15T00:54:11;99653.45;;;1.71;100.0
63691;BME280;49837;57.280;27.070;2023-01-15T00:55:12;99653.28;;;1.73;100.0
63691;BME280;49837;57.280;27.070;2023-01-15T00:56:12;99653.12;;;1.76;100.0
63691;BME280;49837;57.280;27.070;2023-01-15T00:57:12;99647.52;;;1.71;100.0
63691;BME280;49837;57.280;27.070;2023-01-15T00:58:13;99645.64;;;1.71;100.0
63691;BME280;49837;57.280;27.070;2023-01-15T00:59:13;99643.66;;;1.7;100.0
63691;BME280;49837;57.280;27.070;2023-01-15T01:00:14;99643.93;;;1.68;100.0
63691;BME280;49837;57.280;27.070;2023-01-15T01:01:14;99641.52;;;1.7;100.0
63691;BME280;49837;57.280;27.070;2023-01-15T01:02:14;99640.7;;;1.69;100.0
63691;BME280;49837;57.280;27.070;2023-01-15T01:03:14;99635.04;;;1.74;100.0
63691;BME280;49837;57.280;27.070;2023-01-15T01:04:15;99635.27;;;1.79;100.0
63691;BME280;49837;57.280;27.070;2023-01-15T01:05:15;99629.44;;;1.76;100.0
63691;BME280;49837;57.280;27.070;2023-01-15T01:06:16;99633.13;;;1.68;100.0
63691;BME280;49837;57.280;27.070;2023-01-15T01:07:16;99636.37;;;1.66;100.0
63691;BME280;49837;57.280;27.070;2023-01-15T01:08:16;99626.75;;;1.62;100.0
63691;BME280;49837;57.280;27.070;2023-01-15T01:09:17;99626.42;;;1.66;100.0
63691;BME280;49837;57.280;27.070;2023-01-15T01:10:17;99620.83;;;1.66;100.0
63691;BME280;49837;57.280;27.070;2023-01-15T01:11:23;99622.95;;;1.69;100.0
63691;BME280;49837;57.280;27.070;2023-01-15T01:12:21;99616.2;;;1.72;100.0
63691;BME280;49837;57.280;27.070;2023-01-15T01:13:21;99615.62;;;1.76;100.0
63691;BME280;49837;57.280;27.070;2023-01-15T01:14:22;99614.47;;;1.72;100.0
63691;BME280;49837;57.280;27.070;2023-01-15T01:15:22;99614.71;;;1.71;100.0
63691;BME280;49837;57.280;27.070;2023-01-15T01:16:44;99613.16;;;1.75;100.0
63691;BME280;49837;57.280;27.070;2023-01-15T01:17:27;99612.49;;;1.74;100.0
63691;BME280;49837;57.280;27.070;2023-01-15T01:18:27;99608.88;;;1.71;100.0
63691;BME280;49837;57.280;27.070;2023-01-15T01:19:28;99608.3;;;1.7;100.0
63691;BME280;49837;57.280;27.070;2023-01-15T01:20:28;99607.58;;;1.71;100.0
63691;BME280;49837;57.280;27.070;2023-01-15T01:21:29;99605.36;;;1.73;100.0
63691;BME280;49837;57.280;27.070;2023-01-15T01:22:29;99602.3;;;1.77;100.0
63691;BME280;49837;57.280;27.070;2023-01-15T01:23:29;99599.99;;;1.76;100.0
63691;BME280;49837;57.280;27.070;2023-01-15T01:24:29;99595.72;;;1.76;100.0
63691;BME280;49837;57.280;27.070;2023-01-15T01:25:30;99594.81;;;1.74;100.0
63691;BME280;49837;57.280;27.070;2023-01-15T01:26:30;99596.88;;;1.75;100.0
63691;BME280;49837;57.280;27.070;2023-01-15T01:27:31;99594.94;;;1.67;100.0
63691;BME280;49837;57.280;27.070;2023-01-15T01:28:31;99593.2;;;1.63;100.0
63691;BME280;49837;57.280;27.070;2023-01-15T01:29:31;99588.67;;;1.64;100.0
63691;BME280;49837;57.280;27.070;2023-01-15T01:30:32;99593.52;;;1.67;100.0
63691;BME280;49837;57.280;27.070;2023-01-15T01:31:32;99590.23;;;1.69;100.0
63691;BME280;49837;57.280;27.070;2023-01-15T01:32:32;99588.91;;;1.68;100.0
63691;BME280;49837;57.280;27.070;2023-01-15T01:33:33;99590.56;;;1.7;100.0
63691;BME280;49837;57.280;27.070;2023-01-15T01:34:33;99589.66;;;1.7;100.0
63691;BME280;49837;57.280;27.070;2023-01-15T01:35:34;99586.62;;;1.68;100.0
63691;BME280;49837;57.280;27.070;2023-01-15T01:36:35;99584.56;;;1.7;100.0
63691;BME280;49837;57.280;27.070;2023-01-15T01:37:35;99580.02;;;1.7;100.0
63691;BME280;49837;57.280;27.070;2023-01-15T01:38:35;99577.5;;;1.69;100.0
63691;BME280;49837;57.280;27.070;2023-01-15T01:39:35;99581.33;;;1.73;100.0
63691;BME280;49837;57.280;27.070;2023-01-15T01:40:37;99571.41;;;1.73;100.0
63691;BME280;49837;57.280;27.070;2023-01-15T01:41:36;99577.23;;;1.69;100.0
63691;BME280;49837;57.280;27.070;2023-01-15T01:42:36;99569.59;;;1.66;100.0
63691;BME280;49837;57.280;27.070;2023-01-15T01:45:41;99562.1;;;1.74;100.0
63691;BME280;49837;57.280;27.070;2023-01-15T01:46:41;99561.27;;;1.73;100.0
63691;BME280;49837;57.280;27.070;2023-01-15T01:47:41;99552.24;;;1.73;100.0
63691;BME280;49837;57.280;27.070;2023-01-15T01:48:42;99556.0;;;1.76;100.0
63691;BME280;49837;57.280;27.070;2023-01-15T01:49:43;99550.36;;;1.74;100.0
63691;BME280;49837;57.280;27.070;2023-01-15T01:50:44;99546.66;;;1.72;100.0
63691;BME280;49837;57.280;27.070;2023-01-15T01:51:49;99544.85;;;1.7;100.0
63691;BME280;49837;57.280;27.070;2023-01-15T01:52:54;99542.72;;;1.7;100.0
63691;BME280;49837;57.280;27.070;2023-01-15T01:53:54;99546.08;;;1.7;100.0
63691;BME280;49837;57.280;27.070;2023-01-15T01:54:54;99540.25;;;1.68;100.0
63691;BME280;49837;57.280;27.070;2023-01-15T01:55:55;99534.56;;;1.75;100.0
63691;BME280;49837;57.280;27.070;2023-01-15T01:56:54;99536.69;;;1.76;100.0
63691;BME280;49837;57.280;27.070;2023-01-15T01:57:57;99533.62;;;1.81;100.0
63691;BME280;49837;57.280;27.070;2023-01-15T01:58:56;99532.13;;;1.82;99.73
63691;BME280;49837;57.280;27.070;2023-01-15T01:59:57;99536.77;;;1.79;99.75
63691;BME280;49837;57.280;27.070;2023-01-15T02:00:57;99531.91;;;1.77;99.65
63691;BME280;49837;57.280;27.070;2023-01-15T02:01:57;99532.34;;;1.75;99.7
63691;BME280;49837;57.280;27.070;2023-01-15T02:02:58;99530.08;;;1.8;99.92
63691;BME280;49837;57.280;27.070;2023-01-15T02:03:58;99530.17;;;1.8;99.69
63691;BME280;49837;57.280;27.070;2023-01-15T02:04:58;99531.17;;;1.79;99.72
63691;BME280;49837;57.280;27.070;2023-01-15T02:05:59;99526.12;;;1.81;99.88
63691;BME280;49837;57.280;27.070;2023-01-15T02:07:00;99522.11;;;1.79;99.86
63691;BME280;49837;57.280;27.070;2023-01-15T02:07:59;99527.48;;;1.76;99.72
63691;BME280;49837;57.280;27.070;2023-01-15T02:08:59;99521.56;;;1.73;99.64
63691;BME280;49837;57.280;27.070;2023-01-15T02:10:00;99518.77;;;1.73;99.74
63691;BME280;49837;57.280;27.070;2023-01-15T02:11:00;99523.27;;;1.77;99.82
63691;BME280;49837;57.280;27.070;2023-01-15T02:12:08;99529.91;;;1.8;99.79
63691;BME280;49837;57.280;27.070;2023-01-15T02:14:11;99513.17;;;1.76;99.47
63691;BME280;49837;57.280;27.070;2023-01-15T02:17:15;99511.31;;;1.69;99.95
63691;BME280;49837;57.280;27.070;2023-01-15T02:19:34;99505.31;;;1.71;100.0
63691;BME280;49837;57.280;27.070;2023-01-15T02:20:24;99503.08;;;1.7;100.0
63691;BME280;49837;57.280;27.070;2023-01-15T02:24:42;99492.88;;;1.74;99.93
63691;BME280;49837;57.280;27.070;2023-01-15T02:27:37;99481.69;;;1.73;99.44
63691;BME280;49837;57.280;27.070;2023-01-15T02:28:41;99476.11;;;1.74;99.53
63691;BME280;49837;57.280;27.070;2023-01-15T02:30:46;99478.42;;;1.67;99.49
63691;BME280;49837;57.280;27.070;2023-01-15T02:31:49;99486.39;;;1.71;99.62
63691;BME280;49837;57.280;27.070;2023-01-15T02:33:57;99475.53;;;1.71;99.47
63691;BME280;49837;57.280;27.070;2023-01-15T02:34:59;99478.91;;;1.69;99.53
63691;BME280;49837;57.280;27.070;2023-01-15T02:35:59;99478.07;;;1.73;99.52
63691;BME280;49837;57.280;27.070;2023-01-15T02:38:05;99474.94;;;1.79;99.2
63691;BME280;49837;57.280;27.070;2023-01-15T02:39:07;99474.77;;;1.78;99.17
63691;BME280;49837;57.280;27.070;2023-01-15T02:40:07;99471.31;;;1.78;99.04
63691;BME280;49837;57.280;27.070;2023-01-15T02:41:07;99469.61;;;1.75;98.95
63691;BME280;49837;57.280;27.070;2023-01-15T02:42:08;99470.21;;;1.82;98.93
63691;BME280;49837;57.280;27.070;2023-01-15T02:43:07;99464.55;;;1.81;98.76
63691;BME280;49837;57.280;27.070;2023-01-15T02:44:09;99462.92;;;1.8;98.73
63691;BME280;49837;57.280;27.070;2023-01-15T02:45:09;99463.81;;;1.78;98.81
63691;BME280;49837;57.280;27.070;2023-01-15T02:46:10;99460.8;;;1.76;98.84
63691;BME280;49837;57.280;27.070;2023-01-15T02:47:11;99457.1;;;1.75;98.78
63691;BME280;49837;57.280;27.070;2023-01-15T02:48:15;99459.64;;;1.78;98.79
63691;BME280;49837;57.280;27.070;2023-01-15T02:49:16;99457.0;;;1.79;98.74
63691;BME280;49837;57.280;27.070;2023-01-15T02:50:17;99455.69;;;1.81;98.69
63691;BME280;49837;57.280;27.070;2023-01-15T02:51:20;99450.38;;;1.76;98.66
63691;BME280;49837;57.280;27.070;2023-01-15T02:53:26;99452.91;;;1.77;98.6
63691;BME280;49837;57.280;27.070;2023-01-15T02:54:27;99447.73;;;1.74;98.47
63691;BME280;49837;57.280;27.070;2023-01-15T02:55:42;99446.99;;;1.76;98.61
63691;BME280;49837;57.280;27.070;2023-01-15T02:56:32;99441.87;;;1.79;98.57
63691;BME280;49837;57.280;27.070;2023-01-15T02:57:33;99443.19;;;1.8;98.51
63691;BME280;49837;57.280;27.070;2023-01-15T02:58:35;99441.56;;;1.73;98.27
63691;BME280;49837;57.280;27.070;2023-01-15T02:59:38;99443.78;;;1.75;98.47
63691;BME280;49837;57.280;27.070;2023-01-15T03:00:39;99443.2;;;1.78;98.42
63691;BME280;49837;57.280;27.070;2023-01-15T03:01:49;99435.25;;;1.75;98.33
63691;BME280;49837;57.280;27.070;2023-01-15T03:02:49;99430.61;;;1.8;98.33
63691;BME280;49837;57.280;27.070;2023-01-15T03:04:49;99422.26;;;1.76;98.24
63691;BME280;49837;57.280;27.070;2023-01-15T03:07:52;99421.36;;;1.73;98.5
63691;BME280;49837;57.280;27.070;2023-01-15T03:08:50;99419.96;;;1.71;98.36
63691;BME280;49837;57.280;27.070;2023-01-15T03:09:52;99417.26;;;1.69;98.33
63691;BME280;49837;57.280;27.070;2023-01-15T03:11:04;99411.84;;;1.67;98.54
63691;BME280;49837;57.280;27.070;2023-01-15T03:13:00;99408.92;;;1.64;98.65
63691;BME280;49837;57.280;27.070;2023-01-15T03:16:18;99415.94;;;1.68;98.38
63691;BME280;49837;57.280;27.070;2023-01-15T03:18:07;99412.23;;;1.75;98.22
63691;BME280;49837;57.280;27.070;2023-01-15T03:20:19;99401.77;;;1.75;97.69
63691;BME280;49837;57.280;27.070;2023-01-15T03:21:18;99402.78;;;1.73;97.64
63691;BME280;49837;57.280;27.070;2023-01-15T03:22:32;99405.74;;;1.72;97.66
63691;BME280;49837;57.280;27.070;2023-01-15T03:23:22;99397.27;;;1.74;97.71
63691;BME280;49837;57.280;27.070;2023-01-15T03:24:28;99409.14;;;1.79;97.56
63691;BME280;49837;57.280;27.070;2023-01-15T03:25:25;99400.07;;;1.74;97.47
63691;BME280;49837;57.280;27.070;2023-01-15T03:26:24;99402.86;;;1.74;97.46
63691;BME280;49837;57.280;27.070;2023-01-15T03:27:24;99398.92;;;1.71;97.34
63691;BME280;49837;57.280;27.070;2023-01-15T03:28:27;99398.84;;;1.72;97.57
63691;BME280;49837;57.280;27.070;2023-01-15T03:30:30;99402.07;;;1.69;97.72
63691;BME280;49837;57.280;27.070;2023-01-15T03:31:32;99397.79;;;1.7;97.67
63691;BME280;49837;57.280;27.070;2023-01-15T03:32:31;99396.62;;;1.69;97.38
63691;BME280;49837;57.280;27.070;2023-01-15T03:33:32;99392.42;;;1.73;97.16
63691;BME280;49837;57.280;27.070;2023-01-15T03:36:37;99384.97;;;1.69;97.13
63691;BME280;49837;57.280;27.070;2023-01-15T03:37:37;99385.78;;;1.67;97.2
63691;BME280;49837;57.280;27.070;2023-01-15T03:38:39;99387.76;;;1.67;97.26
63691;BME280;49837;57.280;27.070;2023-01-15T03:39:38;99386.77;;;1.7;97.12
63691;BME280;49837;57.280;27.070;2023-01-15T03:40:47;99385.69;;;1.72;96.91
63691;BME280;49837;57.280;27.070;2023-01-15T03:41:53;99388.0;;;1.69;97.15
63691;BME280;49837;57.280;27.070;2023-01-15T03:42:55;99384.31;;;1.65;97.12
63691;BME280;49837;57.280;27.070;2023-01-15T03:44:09;99385.08;;;1.62;97.19
63691;BME280;49837;57.280;27.070;2023-01-15T03:45:54;99386.83;;;1.56;97.51
63691;BME280;49837;57.280;27.070;2023-01-15T03:51:09;99373.8;;;1.51;97.67
63691;BME280;49837;57.280;27.070;2023-01-15T03:54:18;99363.38;;;1.52;97.72
63691;BME280;49837;57.280;27.070;2023-01-15T03:55:19;99361.72;;;1.51;97.71
63691;BME280;49837;57.280;27.070;2023-01-15T03:56:22;99366.05;;;1.53;97.72
63691;BME280;49837;57.280;27.070;2023-01-15T03:59:32;99348.36;;;1.6;97.42
63691;BME280;49837;57.280;27.070;2023-01-15T04:00:39;99345.3;;;1.63;97.24
63691;BME280;49837;57.280;27.070;2023-01-15T04:01:34;99342.52;;;1.6;97.16
63691;BME280;49837;57.280;27.070;2023-01-15T04:02:29;99340.8;;;1.59;97.25
63691;BME280;49837;57.280;27.070;2023-01-15T04:03:29;99342.38;;;1.54;97.37
63691;BME280;49837;57.280;27.070;2023-01-15T04:04:29;99342.66;;;1.51;97.48
63691;BME280;49837;57.280;27.070;2023-01-15T04:05:30;99345.05;;;1.52;97.67
63691;BME280;49837;57.280;27.070;2023-01-15T04:06:31;99349.22;;;1.53;97.65
63691;BME280;49837;57.280;27.070;2023-01-15T04:07:30;99342.67;;;1.49;97.67
63691;BME280;49837;57.280;27.070;2023-01-15T04:08:33;99339.44;;;1.53;97.57
63691;BME280;49837;57.280;27.070;2023-01-15T04:09:36;99343.35;;;1.58;97.58
63691;BME280;49837;57.280;27.070;2023-01-15T04:10:34;99341.05;;;1.59;97.42
63691;BME280;49837;57.280;27.070;2023-01-15T04:11:35;99342.27;;;1.59;97.4
63691;BME280;49837;57.280;27.070;2023-01-15T04:13:35;99335.22;;;1.56;97.32
63691;BME280;49837;57.280;27.070;2023-01-15T04:14:35;99334.11;;;1.53;97.47
63691;BME280;49837;57.280;27.070;2023-01-15T04:15:36;99322.95;;;1.5;97.67
63691;BME280;49837;57.280;27.070;2023-01-15T04:16:36;99323.73;;;1.55;97.59
63691;BME280;49837;57.280;27.070;2023-01-15T04:17:37;99319.38;;;1.54;97.52
63691;BME280;49837;57.280;27.070;2023-01-15T04:18:37;99317.26;;;1.53;97.54
63691;BME280;49837;57.280;27.070;2023-01-15T04:19:37;99316.65;;;1.57;97.33
63691;BME280;49837;57.280;27.070;2023-01-15T04:20:38;99310.14;;;1.59;97.2
63691;BME280;49837;57.280;27.070;2023-01-15T04:21:38;99318.2;;;1.56;97.13
63691;BME280;49837;57.280;27.070;2023-01-15T04:22:38;99312.21;;;1.57;97.15
63691;BME280;49837;57.280;27.070;2023-01-15T04:23:39;99309.85;;;1.64;97.01
63691;BME280;49837;57.280;27.070;2023-01-15T04:24:40;99309.01;;;1.67;96.91
63691;BME280;49837;57.280;27.070;2023-01-15T04:25:40;99310.61;;;1.64;96.88
63691;BME280;49837;57.280;27.070;2023-01-15T04:26:40;99297.64;;;1.62;96.92
63691;BME280;49837;57.280;27.070;2023-01-15T04:27:40;99295.17;;;1.61;96.91
63691;BME280;49837;57.280;27.070;2023-01-15T04:28:41;99295.84;;;1.6;96.95
63691;BME280;49837;57.280;27.070;2023-01-15T04:29:41;99293.94;;;1.6;97.04
63691;BME280;49837;57.280;27.070;2023-01-15T04:30:41;99293.78;;;1.6;97.03
63691;BME280;49837;57.280;27.070;2023-01-15T04:31:42;99295.06;;;1.62;97.02
63691;BME280;49837;57.280;27.070;2023-01-15T04:32:42;99291.05;;;1.63;96.93
63691;BME280;49837;57.280;27.070;2023-01-15T04:33:42;99283.72;;;1.65;96.9
63691;BME280;49837;57.280;27.070;2023-01-15T04:34:43;99282.42;;;1.62;96.94
63691;BME280;49837;57.280;27.070;2023-01-15T04:35:43;99279.31;;;1.59;97.07
63691;BME280;49837;57.280;27.070;2023-01-15T04:36:43;99273.56;;;1.59;97.11
63691;BME280;49837;57.280;27.070;2023-01-15T04:37:44;99263.38;;;1.57;97.12
63691;BME280;49837;57.280;27.070;2023-01-15T04:38:44;99261.41;;;1.59;97.13
63691;BME280;49837;57.280;27.070;2023-01-15T04:39:46;99260.86;;;1.53;97.16
63691;BME280;49837;57.280;27.070;2023-01-15T04:40:45;99247.56;;;1.53;97.34
63691;BME280;49837;57.280;27.070;2023-01-15T04:42:45;99243.28;;;1.54;97.29
63691;BME280;49837;57.280;27.070;2023-01-15T04:43:46;99248.8;;;1.51;97.35
63691;BME280;49837;57.280;27.070;2023-01-15T04:44:46;99243.42;;;1.57;97.27
63691;BME280;49837;57.280;27.070;2023-01-15T04:45:47;99243.22;;;1.53;97.23
63691;BME280;49837;57.280;27.070;2023-01-15T04:46:47;99232.03;;;1.53;97.3
63691;BME280;49837;57.280;27.070;2023-01-15T04:47:47;99234.5;;;1.54;97.25
63691;BME280;49837;57.280;27.070;2023-01-15T04:48:48;99228.91;;;1.54;97.28
63691;BME280;49837;57.280;27.070;2023-01-15T04:49:48;99226.86;;;1.5;97.31
63691;BME280;49837;57.280;27.070;2023-01-15T04:50:48;99226.8;;;1.5;97.43
63691;BME280;49837;57.280;27.070;2023-01-15T04:51:49;99218.45;;;1.46;97.51
63691;BME280;49837;57.280;27.070;2023-01-15T04:52:49;99217.12;;;1.48;97.52
63691;BME280;49837;57.280;27.070;2023-01-15T04:53:49;99213.86;;;1.53;97.32
63691;BME280;49837;57.280;27.070;2023-01-15T04:54:50;99210.8;;;1.56;97.17
63691;BME280;49837;57.280;27.070;2023-01-15T04:55:50;99213.48;;;1.52;97.22
63691;BME280;49837;57.280;27.070;2023-01-15T04:56:52;99209.23;;;1.48;97.27
63691;BME280;49837;57.280;27.070;2023-01-15T04:57:51;99210.69;;;1.52;97.18
63691;BME280;49837;57.280;27.070;2023-01-15T04:58:51;99202.96;;;1.52;97.18
63691;BME280;49837;57.280;27.070;2023-01-15T04:59:52;99199.11;;;1.47;97.27
63691;BME280;49837;57.280;27.070;2023-01-15T05:00:52;99197.42;;;1.44;97.4
63691;BME280;49837;57.280;27.070;2023-01-15T05:01:53;99191.66;;;1.47;97.34
63691;BME280;49837;57.280;27.070;2023-01-15T05:02:55;99194.16;;;1.5;97.25
63691;BME280;49837;57.280;27.070;2023-01-15T05:03:55;99191.47;;;1.48;97.26
63691;BME280;49837;57.280;27.070;2023-01-15T05:04:55;99187.05;;;1.46;97.31
63691;BME280;49837;57.280;27.070;2023-01-15T05:06:00;99179.16;;;1.47;97.26
63691;BME280;49837;57.280;27.070;2023-01-15T05:07:00;99171.82;;;1.48;97.21
63691;BME280;49837;57.280;27.070;2023-01-15T05:07:58;99163.88;;;1.46;97.23
63691;BME280;49837;57.280;27.070;2023-01-15T05:09:00;99168.41;;;1.46;97.25
63691;BME280;49837;57.280;27.070;2023-01-15T05:09:59;99169.55;;;1.45;97.21
63691;BME280;49837;57.280;27.070;2023-01-15T05:12:01;99167.5;;;1.46;97.29
63691;BME280;49837;57.280;27.070;2023-01-15T05:13:02;99167.38;;;1.5;97.09
63691;BME280;49837;57.280;27.070;2023-01-15T05:14:02;99159.91;;;1.49;97.07
63691;BME280;49837;57.280;27.070;2023-01-15T05:15:03;99162.94;;;1.49;97.08
63691;BME280;49837;57.280;27.070;2023-01-15T05:17:06;99164.11;;;1.49;97.05
63691;BME280;49837;57.280;27.070;2023-01-15T05:18:07;99155.99;;;1.47;97.06
63691;BME280;49837;57.280;27.070;2023-01-15T05:19:08;99156.78;;;1.49;97.05
63691;BME280;49837;57.280;27.070;2023-01-15T05:20:08;99157.17;;;1.52;97.06
63691;BME280;49837;57.280;27.070;2023-01-15T05:21:16;99158.72;;;1.53;97.05
63691;BME280;49837;57.280;27.070;2023-01-15T05:22:09;99162.34;;;1.52;96.95
63691;BME280;49837;57.280;27.070;2023-01-15T05:23:09;99165.8;;;1.52;96.94
63691;BME280;49837;57.280;27.070;2023-01-15T05:24:13;99163.18;;;1.53;96.97
63691;BME280;49837;57.280;27.070;2023-01-15T05:25:10;99159.25;;;1.51;97.01
63691;BME280;49837;57.280;27.070;2023-01-15T05:26:11;99157.0;;;1.51;96.99
63691;BME280;49837;57.280;27.070;2023-01-15T05:27:11;99165.48;;;1.52;96.94
63691;BME280;49837;57.280;27.070;2023-01-15T05:28:11;99156.0;;;1.53;96.88
63691;BME280;49837;57.280;27.070;2023-01-15T05:29:12;99156.52;;;1.52;96.76
63691;BME280;49837;57.280;27.070;2023-01-15T05:30:13;99148.3;;;1.5;96.83
63691;BME280;49837;57.280;27.070;2023-01-15T05:31:17;99142.23;;;1.49;96.92
63691;BME280;49837;57.280;27.070;2023-01-15T05:32:15;99141.08;;;1.49;96.96
63691;BME280;49837;57.280;27.070;2023-01-15T05:33:15;99133.95;;;1.48;96.98
63691;BME280;49837;57.280;27.070;2023-01-15T05:34:16;99135.11;;;1.49;96.83
63691;BME280;49837;57.280;27.070;2023-01-15T05:35:16;99136.95;;;1.51;96.75
63691;BME280;49837;57.280;27.070;2023-01-15T05:36:19;99135.56;;;1.54;96.6
63691;BME280;49837;57.280;27.070;2023-01-15T05:37:18;99135.55;;;1.53;96.64
63691;BME280;49837;57.280;27.070;2023-01-15T05:38:18;99133.3;;;1.55;96.44
63691;BME280;49837;57.280;27.070;2023-01-15T05:39:18;99127.07;;;1.53;96.2
63691;BME280;49837;57.280;27.070;2023-01-15T05:40:19;99123.75;;;1.56;96.1
63691;BME280;49837;57.280;27.070;2023-01-15T05:41:20;99127.78;;;1.56;96.08
63691;BME280;49837;57.280;27.070;2023-01-15T05:42:19;99125.47;;;1.58;96.1
63691;BME280;49837;57.280;27.070;2023-01-15T05:43:20;99132.14;;;1.58;96.05
63691;BME280;49837;57.280;27.070;2023-01-15T05:44:25;99128.91;;;1.6;95.92
63691;BME280;49837;57.280;27.070;2023-01-15T05:45:23;99130.62;;;1.61;95.79
63691;BME280;49837;57.280;27.070;2023-01-15T05:46:23;99127.53;;;1.59;95.71
63691;BME280;49837;57.280;27.070;2023-01-15T05:47:24;99128.03;;;1.56;95.73
63691;BME280;49837;57.280;27.070;2023-01-15T05:48:26;99122.92;;;1.59;95.73
63691;BME280;49837;57.280;27.070;2023-01-15T05:49:26;99129.33;;;1.59;95.63
63691;BME280;49837;57.280;27.070;2023-01-15T05:50:25;99114.73;;;1.54;95.63
63691;BME280;49837;57.280;27.070;2023-01-15T05:51:25;99118.48;;;1.59;95.51
63691;BME280;49837;57.280;27.070;2023-01-15T05:52:25;99114.91;;;1.61;95.4
63691;BME280;49837;57.280;27.070;2023-01-15T05:53:26;99110.31;;;1.61;95.31
63691;BME280;49837;57.280;27.070;2023-01-15T05:54:29;99104.59;;;1.58;95.26
63691;BME280;49837;57.280;27.070;2023-01-15T05:55:27;99103.0;;;1.61;95.16
63691;BME280;49837;57.280;27.070;2023-01-15T05:56:27;99101.05;;;1.68;94.88
63691;BME280;49837;57.280;27.070;2023-01-15T05:57:27;99093.91;;;1.73;94.58
63691;BME280;49837;57.280;27.070;2023-01-15T05:58:28;99095.23;;;1.74;94.29
63691;BME280;49837;57.280;27.070;2023-01-15T05:59:29;99095.16;;;1.73;94.25
63691;BME280;49837;57.280;27.070;2023-01-15T06:00:28;99084.02;;;1.69;94.3
63691;BME280;49837;57.280;27.070;2023-01-15T06:01:29;99095.7;;;1.68;94.37
63691;BME280;49837;57.280;27.070;2023-01-15T06:02:29;99095.83;;;1.63;94.54
63691;BME280;49837;57.280;27.070;2023-01-15T06:03:29;99084.94;;;1.66;94.58